createdAt,value
2023-05-05T00:00:12.337Z,57.64
2023-05-05T00:03:14.833Z,58.51
2023-05-05T00:06:17.274Z,58.41
2023-05-05T00:09:19.215Z,58.20
2023-05-05T00:12:21.202Z,58.00
2023-05-05T00:15:25.651Z,57.68
2023-05-05T00:18:28.400Z,58.02
2023-05-05T00:21:31.105Z,57.83
2023-05-05T00:24:33.350Z,58.19
2023-05-05T00:27:35.464Z,58.79
2023-05-05T00:30:39.807Z,59.34
2023-05-05T00:33:41.975Z,59.10
2023-05-05T00:36:43.893Z,59.20
2023-05-05T00:39:45.815Z,59.31
2023-05-05T00:42:52.383Z,59.42
2023-05-05T00:46:03.961Z,59.15
2023-05-05T00:49:06.853Z,59.25
2023-05-05T00:52:10.148Z,59.36
2023-05-05T00:55:12.229Z,59.58
2023-05-05T00:58:14.674Z,59.16
2023-05-05T01:01:17.461Z,59.55
2023-05-05T01:04:20.675Z,59.63
2023-05-05T01:07:43.687Z,59.77
2023-05-05T01:10:53.037Z,59.69
2023-05-05T01:14:11.541Z,59.95
2023-05-05T01:17:19.296Z,60.03
2023-05-05T01:20:23.726Z,59.88
2023-05-05T01:24:03.840Z,60.36
2023-05-05T01:27:26.068Z,60.22
2023-05-05T01:30:46.478Z,60.37
2023-05-05T01:33:51.951Z,59.82
2023-05-05T01:37:10.088Z,59.76
2023-05-05T01:40:20.072Z,60.91
2023-05-05T01:43:25.660Z,60.45
2023-05-05T01:46:28.364Z,61.20
2023-05-05T01:49:32.809Z,60.80
2023-05-05T01:52:37.606Z,61.31
2023-05-05T01:55:40.776Z,61.25
2023-05-05T01:58:45.054Z,61.49
2023-05-05T02:01:49.097Z,61.80
2023-05-05T02:04:53.433Z,61.53
2023-05-05T02:07:59.038Z,61.97
2023-05-05T02:11:01.423Z,61.84
2023-05-05T02:14:05.129Z,61.28
2023-05-05T02:17:08.672Z,61.01
2023-05-05T02:20:16.091Z,61.29
2023-05-05T02:23:17.957Z,61.58
2023-05-05T02:26:22.460Z,62.32
2023-05-05T02:29:38.129Z,62.40
2023-05-05T02:32:45.329Z,62.80
2023-05-05T02:35:49.951Z,62.79
2023-05-05T02:38:56.195Z,62.80
2023-05-05T02:42:05.743Z,64.10
2023-05-05T02:45:16.340Z,64.02
2023-05-05T02:48:22.025Z,63.44
2023-05-05T02:51:26.163Z,63.60
2023-05-05T02:54:28.686Z,64.21
2023-05-05T02:57:55.433Z,64.24
2023-05-05T03:01:26.793Z,64.26
2023-05-05T03:04:35.111Z,63.81
2023-05-05T03:08:01.307Z,63.92
2023-05-05T03:11:06.541Z,64.11
2023-05-05T03:14:14.342Z,63.94
2023-05-05T03:17:18.418Z,62.85
2023-05-05T03:20:21.794Z,62.50
2023-05-05T03:23:24.926Z,62.31
2023-05-05T03:26:31.987Z,61.64
2023-05-05T03:29:34.213Z,61.79
2023-05-05T03:32:37.130Z,61.88
2023-05-05T03:35:39.198Z,62.48
2023-05-05T03:38:43.742Z,61.49
2023-05-05T03:41:45.751Z,61.76
2023-05-05T03:44:53.414Z,62.61
2023-05-05T03:47:56.614Z,62.89
2023-05-05T03:50:58.759Z,62.93
2023-05-05T03:54:02.615Z,62.99
2023-05-05T03:57:04.677Z,63.26
2023-05-05T04:00:11.837Z,64.32
2023-05-05T04:03:17.326Z,63.47
2023-05-05T04:06:19.587Z,63.64
2023-05-05T04:09:21.674Z,62.92
2023-05-05T04:12:23.825Z,63.17
2023-05-05T04:15:26.087Z,62.22
2023-05-05T04:18:28.586Z,61.16
2023-05-05T04:21:31.525Z,60.65
2023-05-05T04:24:34.515Z,59.69
2023-05-05T04:27:36.615Z,57.83
2023-05-05T04:30:39.231Z,58.06
2023-05-05T04:33:41.565Z,59.41
2023-05-05T04:36:43.562Z,57.94
2023-05-05T04:39:46.580Z,58.66
2023-05-05T04:42:49.045Z,59.28
2023-05-05T04:45:55.895Z,58.45
2023-05-05T04:49:05.021Z,59.21
2023-05-05T04:52:07.646Z,59.87
2023-05-05T04:55:10.763Z,58.54
2023-05-05T04:58:12.700Z,58.04
2023-05-05T05:01:23.917Z,56.73
2023-05-05T05:04:27.323Z,58.19
2023-05-05T05:07:29.331Z,57.12
2023-05-05T05:10:31.211Z,57.71
2023-05-05T05:13:33.771Z,56.12
2023-05-05T05:16:35.787Z,57.87
2023-05-05T05:19:38.159Z,57.38
2023-05-05T05:22:41.047Z,57.90
2023-05-05T05:25:48.065Z,56.13
2023-05-05T05:28:53.184Z,56.56
2023-05-05T05:31:55.274Z,56.52
2023-05-05T05:34:57.650Z,56.12
2023-05-05T05:37:59.820Z,56.99
2023-05-05T05:41:06.357Z,56.22
2023-05-05T05:44:09.376Z,55.28
2023-05-05T05:47:11.614Z,56.33
2023-05-05T05:50:13.909Z,56.06
2023-05-05T05:53:16.268Z,56.75
2023-05-05T05:56:18.321Z,54.77
2023-05-05T05:59:20.283Z,55.92
2023-05-05T06:02:22.696Z,55.39
2023-05-05T06:05:25.011Z,56.00
2023-05-05T06:08:27.674Z,55.38
2023-05-05T06:11:33.180Z,55.07
2023-05-05T06:14:36.517Z,55.35
2023-05-05T06:17:38.743Z,56.04
2023-05-05T06:20:43.404Z,54.30
2023-05-05T06:23:49.802Z,54.19
2023-05-05T06:26:51.784Z,53.87
2023-05-05T06:29:53.682Z,54.97
2023-05-05T06:32:55.814Z,53.32
2023-05-05T06:35:57.740Z,52.45
2023-05-05T06:38:59.786Z,51.67
2023-05-05T06:42:02.123Z,51.93
2023-05-05T06:45:04.202Z,53.40
2023-05-05T06:48:06.320Z,52.52
2023-05-05T06:51:09.692Z,53.79
2023-05-05T06:54:11.678Z,51.81
2023-05-05T06:57:13.633Z,51.77
2023-05-05T07:00:17.006Z,51.42
2023-05-05T07:03:18.989Z,52.35
2023-05-05T07:06:21.021Z,51.56
2023-05-05T07:09:22.974Z,51.52
2023-05-05T07:12:24.977Z,53.25
2023-05-05T07:15:29.224Z,52.49
2023-05-05T07:18:31.731Z,52.07
2023-05-05T07:21:34.418Z,51.80
2023-05-05T07:24:36.535Z,51.73
2023-05-05T07:27:39.210Z,51.55
2023-05-05T07:30:41.553Z,50.53
2023-05-05T07:33:43.666Z,49.68
2023-05-05T07:36:45.561Z,52.24
2023-05-05T07:39:48.781Z,50.57
2023-05-05T07:42:50.919Z,50.12
2023-05-05T07:45:53.439Z,50.64
2023-05-05T07:48:55.403Z,48.27
2023-05-05T07:51:57.287Z,49.76
2023-05-05T07:54:59.125Z,50.58
2023-05-05T07:58:01.011Z,50.55
2023-05-05T08:01:03.049Z,49.54
2023-05-05T08:04:05.477Z,49.52
2023-05-05T08:07:09.920Z,48.24
2023-05-05T08:10:12.364Z,47.78
2023-05-05T08:13:14.485Z,48.75
2023-05-05T08:16:16.476Z,47.57
2023-05-05T08:19:28.557Z,47.28
2023-05-05T08:22:31.817Z,46.69
2023-05-05T08:25:33.843Z,46.96
2023-05-05T08:28:36.877Z,45.29
2023-05-05T08:31:38.971Z,45.99
2023-05-05T08:34:41.344Z,45.95
2023-05-05T08:37:43.458Z,43.90
2023-05-05T08:40:45.688Z,44.01
2023-05-05T08:43:48.388Z,43.16
2023-05-05T08:46:51.221Z,42.88
2023-05-05T08:49:55.734Z,44.29
2023-05-05T08:53:16.730Z,45.08
2023-05-05T08:56:20.096Z,42.35
2023-05-05T08:59:25.154Z,42.92
2023-05-05T09:02:30.058Z,43.51
2023-05-05T09:05:32.043Z,42.94
2023-05-05T09:08:34.171Z,44.34
2023-05-05T09:11:37.595Z,43.50
2023-05-05T09:14:39.622Z,42.72
2023-05-05T09:17:42.384Z,44.00
2023-05-05T09:20:44.512Z,43.02
2023-05-05T09:24:13.069Z,43.14
2023-05-05T09:27:23.395Z,43.18
2023-05-05T09:30:26.950Z,43.14
2023-05-05T09:33:33.601Z,42.15
2023-05-05T09:36:49.807Z,42.43
2023-05-05T09:39:56.111Z,44.48
2023-05-05T09:43:02.251Z,42.98
2023-05-05T09:46:08.364Z,42.82
2023-05-05T09:49:16.144Z,43.44
2023-05-05T09:52:19.125Z,43.26
2023-05-05T09:55:21.404Z,41.04
2023-05-05T09:58:27.769Z,40.55
2023-05-05T10:03:33.795Z,41.92
2023-05-05T10:07:08.031Z,43.22
2023-05-05T10:16:20.068Z,40.78
2023-05-05T10:19:24.483Z,41.33
2023-05-05T10:22:28.563Z,40.83
2023-05-05T10:25:35.293Z,41.66
2023-05-05T10:28:44.406Z,40.37
2023-05-05T10:31:49.998Z,39.48
2023-05-05T10:35:01.023Z,38.66
2023-05-05T10:38:04.473Z,37.91
2023-05-05T10:41:08.423Z,38.49
2023-05-05T10:44:11.584Z,40.55
2023-05-05T10:47:13.632Z,38.69
2023-05-05T10:50:41.685Z,42.63
2023-05-05T10:54:06.139Z,42.13
2023-05-05T10:57:10.938Z,40.55
2023-05-05T11:00:38.661Z,40.04
2023-05-05T11:03:40.931Z,40.50
2023-05-05T11:07:11.054Z,40.76
2023-05-05T11:10:15.804Z,37.72
2023-05-05T11:13:19.252Z,38.42
2023-05-05T11:16:44.592Z,38.69
2023-05-05T11:19:48.611Z,36.08
2023-05-05T11:23:03.033Z,39.58
2023-05-05T11:26:05.107Z,39.56
2023-05-05T11:29:07.148Z,38.98
2023-05-05T11:32:19.967Z,39.12
2023-05-05T11:35:21.982Z,41.12
2023-05-05T11:38:45.175Z,37.58
2023-05-05T11:42:02.570Z,40.89
2023-05-05T11:45:21.791Z,39.07
2023-05-05T11:48:25.050Z,39.01
2023-05-05T11:51:28.315Z,37.72
2023-05-05T11:54:31.312Z,39.31
2023-05-05T11:57:33.228Z,39.94
2023-05-05T12:00:36.572Z,40.43
2023-05-05T12:03:39.754Z,40.14
2023-05-05T12:06:43.002Z,38.63
2023-05-05T12:09:47.052Z,38.51
2023-05-05T12:12:49.493Z,37.91
2023-05-05T12:15:51.595Z,39.26
2023-05-05T12:19:05.750Z,38.44
2023-05-05T12:22:07.726Z,37.18
2023-05-05T12:25:10.127Z,35.76
2023-05-05T12:28:12.075Z,34.23
2023-05-05T12:31:14.420Z,32.77
2023-05-05T12:34:17.266Z,35.31
2023-05-05T12:37:19.607Z,35.82
2023-05-05T12:40:44.869Z,35.82
2023-05-05T12:43:47.692Z,34.33
2023-05-05T12:46:49.624Z,35.48
2023-05-05T12:49:52.766Z,35.20
2023-05-05T12:52:54.796Z,35.88
2023-05-05T12:55:56.680Z,36.71
2023-05-05T12:58:59.867Z,35.45
2023-05-05T13:02:01.944Z,36.67
2023-05-05T13:05:04.439Z,34.58
2023-05-05T13:08:06.798Z,36.14
2023-05-05T13:11:08.660Z,36.84
2023-05-05T13:14:10.904Z,36.35
2023-05-05T13:17:14.301Z,35.61
2023-05-05T13:20:16.520Z,35.35
2023-05-05T13:23:19.460Z,35.70
2023-05-05T13:26:21.425Z,35.64
2023-05-05T13:29:27.294Z,35.13
2023-05-05T13:32:31.515Z,35.13
2023-05-05T13:35:33.456Z,34.03
2023-05-05T13:38:36.583Z,37.54
2023-05-05T13:41:38.642Z,35.45
2023-05-05T13:44:40.617Z,34.58
2023-05-05T13:47:44.457Z,34.78
2023-05-05T13:50:47.175Z,35.09
2023-05-05T13:53:49.007Z,33.60
2023-05-05T13:56:50.920Z,34.56
2023-05-05T13:59:52.838Z,33.49
2023-05-05T14:02:55.206Z,33.55
2023-05-05T14:05:57.730Z,34.20
2023-05-05T14:08:59.776Z,32.93
2023-05-05T14:12:01.694Z,33.08
2023-05-05T14:15:04.148Z,34.01
2023-05-05T14:18:07.284Z,34.45
2023-05-05T14:21:09.554Z,35.61
2023-05-05T14:24:11.426Z,34.39
2023-05-05T14:27:13.358Z,37.04
2023-05-05T14:30:15.636Z,36.13
2023-05-05T14:33:17.525Z,35.85
2023-05-05T14:36:19.489Z,35.53
2023-05-05T14:40:03.109Z,36.49
2023-05-05T14:43:26.868Z,35.15
2023-05-05T14:46:28.906Z,35.49
2023-05-05T14:49:31.222Z,36.23
2023-05-05T14:52:33.382Z,36.19
2023-05-05T14:55:35.368Z,34.75
2023-05-05T14:58:37.683Z,34.15
2023-05-05T15:01:39.759Z,33.68
2023-05-05T15:04:41.689Z,34.29
2023-05-05T15:07:43.651Z,34.99
2023-05-05T15:10:46.249Z,35.11
2023-05-05T15:13:48.122Z,35.20
2023-05-05T15:16:50.023Z,35.13
2023-05-05T15:19:52.011Z,35.59
2023-05-05T15:22:55.163Z,35.51
2023-05-05T15:25:57.099Z,34.75
2023-05-05T15:28:59.337Z,35.70
2023-05-05T15:32:01.565Z,35.78
2023-05-05T15:35:03.996Z,35.73
2023-05-05T15:38:06.646Z,35.47
2023-05-05T16:15:28.070Z,39.06
2023-05-05T16:18:29.924Z,38.06
2023-05-05T16:21:31.847Z,37.42
2023-05-05T16:24:33.767Z,38.62
2023-05-05T16:27:35.620Z,39.03
2023-05-05T16:30:38.168Z,39.28
2023-05-05T16:33:41.337Z,40.08
2023-05-05T16:36:44.472Z,39.46
2023-05-05T16:39:46.816Z,40.43
2023-05-05T16:42:54.073Z,40.48
2023-05-05T16:45:58.100Z,40.48
2023-05-05T16:48:59.991Z,40.22
2023-05-05T16:52:02.081Z,41.24
2023-05-05T16:55:04.866Z,41.89
2023-05-05T16:58:06.991Z,41.41
2023-05-05T17:01:08.900Z,41.03
2023-05-05T17:04:12.105Z,41.36
2023-05-05T17:07:13.934Z,41.92
2023-05-05T17:10:16.157Z,41.70
2023-05-05T17:13:23.475Z,43.03
2023-05-05T17:16:25.502Z,43.28
2023-05-05T17:19:27.376Z,43.84
2023-05-05T17:22:29.473Z,44.05
2023-05-05T17:25:32.091Z,45.33
2023-05-05T17:28:34.369Z,45.16
2023-05-05T17:31:36.808Z,46.34
2023-05-05T17:34:39.095Z,46.80
2023-05-05T17:37:41.762Z,46.77
2023-05-05T17:40:43.803Z,47.95
2023-05-05T17:43:46.134Z,47.95
2023-05-05T17:46:47.999Z,48.29
2023-05-05T17:49:51.723Z,49.51
2023-05-05T17:52:53.609Z,49.67
2023-05-05T17:55:55.602Z,50.67
2023-05-05T17:58:57.912Z,50.83
2023-05-05T18:01:59.880Z,51.14
2023-05-05T18:05:01.886Z,52.41
2023-05-05T18:08:04.088Z,52.50
2023-05-05T18:11:06.208Z,52.53
2023-05-05T18:14:08.246Z,53.16
2023-05-05T18:17:10.215Z,53.23
2023-05-05T18:20:12.292Z,53.68
2023-05-05T18:23:14.401Z,53.62
2023-05-05T18:26:16.660Z,53.63
2023-05-05T18:29:19.864Z,52.73
2023-05-05T18:32:22.136Z,52.94
2023-05-05T18:35:24.202Z,53.95
2023-05-05T18:38:26.266Z,55.60
2023-05-05T18:41:28.176Z,55.52
2023-05-05T18:44:30.208Z,55.38
2023-05-05T18:47:33.794Z,54.90
2023-05-05T18:50:36.962Z,55.98
2023-05-05T18:53:41.890Z,56.81
2023-05-05T18:56:43.809Z,56.28
2023-05-05T18:59:45.946Z,55.97
2023-05-05T19:02:47.870Z,57.14
2023-05-05T19:05:49.851Z,57.69
2023-05-05T19:08:52.247Z,57.60
2023-05-05T19:11:58.142Z,57.58
2023-05-05T19:15:00.064Z,58.08
2023-05-05T19:18:02.569Z,58.72
2023-05-05T19:21:04.619Z,59.00
2023-05-05T19:24:08.400Z,58.92
2023-05-05T19:27:15.490Z,59.51
2023-05-05T19:30:18.469Z,58.34
2023-05-05T19:33:20.695Z,57.30
2023-05-05T19:36:23.029Z,58.11
2023-05-05T19:39:24.934Z,59.10
2023-05-05T19:42:27.503Z,59.20
2023-05-05T19:45:29.952Z,58.67
2023-05-05T19:48:31.974Z,58.17
2023-05-05T19:51:33.870Z,58.83
2023-05-05T19:54:36.267Z,58.99
2023-05-05T19:57:40.188Z,59.18
2023-05-05T20:00:42.490Z,59.12
2023-05-05T20:03:44.447Z,59.41
2023-05-05T20:06:46.376Z,58.88
2023-05-05T20:09:48.411Z,58.86
2023-05-05T20:12:50.612Z,57.98
2023-05-05T20:15:52.519Z,57.13
2023-05-05T20:18:54.554Z,58.89
2023-05-05T20:21:57.139Z,61.12
2023-05-05T20:24:59.019Z,61.51
2023-05-05T20:28:00.878Z,60.03
2023-05-05T20:31:03.048Z,60.26
2023-05-05T20:34:05.726Z,59.88
2023-05-05T20:37:07.611Z,59.41
2023-05-05T20:40:10.463Z,58.35
2023-05-05T20:43:12.660Z,57.93
2023-05-05T20:46:14.621Z,58.61
2023-05-05T20:49:16.529Z,59.10
2023-05-05T20:52:18.714Z,59.36
2023-05-05T20:55:20.617Z,59.95
2023-05-05T20:58:22.625Z,59.33
2023-05-05T21:01:24.843Z,59.48
2023-05-05T21:04:27.371Z,59.61
2023-05-05T21:07:31.278Z,60.33
2023-05-05T21:10:33.741Z,59.77
2023-05-05T21:13:36.217Z,59.70
2023-05-05T21:16:38.142Z,59.54
2023-05-05T21:19:40.165Z,59.25
2023-05-05T21:22:42.123Z,59.68
2023-05-05T21:25:44.088Z,60.10
2023-05-05T21:28:46.539Z,58.92
2023-05-05T21:31:48.481Z,59.03
2023-05-05T21:34:50.707Z,57.91
2023-05-05T21:37:52.587Z,57.90
2023-05-05T21:40:58.341Z,59.48
2023-05-05T21:44:00.279Z,62.44
2023-05-05T21:47:02.199Z,63.17
2023-05-05T21:50:04.603Z,62.39
2023-05-05T21:53:06.528Z,63.68
2023-05-05T21:56:08.674Z,64.10
2023-05-05T21:59:11.145Z,64.33
2023-05-05T22:02:13.570Z,65.67
2023-05-05T22:05:15.556Z,65.05
2023-05-05T22:08:18.054Z,63.75
2023-05-05T22:11:19.952Z,63.72
2023-05-05T22:14:21.975Z,64.72
2023-05-05T22:17:23.912Z,64.72
2023-05-05T22:20:25.897Z,63.85
2023-05-05T22:23:28.718Z,62.98
2023-05-05T22:26:30.630Z,65.32
2023-05-05T22:29:32.617Z,65.34
2023-05-05T22:32:34.803Z,64.60
2023-05-05T22:35:37.781Z,64.03
2023-05-05T22:38:39.704Z,64.69
2023-05-05T22:41:41.896Z,64.04
2023-05-05T22:44:43.863Z,63.23
2023-05-05T22:47:45.818Z,62.65
2023-05-05T22:50:47.735Z,62.24
2023-05-05T22:53:49.645Z,62.36
2023-05-05T22:56:51.915Z,64.77
2023-05-05T22:59:53.903Z,64.54
2023-05-05T23:02:56.161Z,65.91
2023-05-05T23:05:58.379Z,64.83
2023-05-05T23:09:00.415Z,63.21
2023-05-05T23:12:02.932Z,64.36
2023-05-05T23:15:05.689Z,63.15
2023-05-05T23:18:07.998Z,63.44
2023-05-05T23:21:10.451Z,64.32
2023-05-05T23:24:12.370Z,65.13
2023-05-05T23:27:14.378Z,64.77
2023-05-05T23:30:16.681Z,63.53
2023-05-05T23:33:19.458Z,63.45
2023-05-05T23:36:21.559Z,64.63
2023-05-05T23:39:23.490Z,63.29
2023-05-05T23:42:25.618Z,62.67
2023-05-05T23:45:27.974Z,62.37
2023-05-05T23:48:29.824Z,62.22
2023-05-05T23:51:31.734Z,62.30
2023-05-05T23:54:33.812Z,62.87
2023-05-05T23:57:36.322Z,62.91
